Flight Track Log - Related Links

Times and Time Zones

All times are in EDT time to prevent confusion due to time zone crossing. See the N377QS flight status page for this flight to view local times or setup timezone preferences in your user account.

Time Position Orientation Groundspeed Altitude Reporting Facility
EDT Latitude Longitude Course Direction KTS MPH feet Rate Location/Type
Sat 01:25:56 PM 47.5172 -122.2914 146° Southeast 171 197 1,200  Level Seattle Center
Sat 01:27:09 PM 47.4603 -122.2342 146° Southeast 218 251 3,900 2,149 Climbing Seattle Center
Sat 01:28:10 PM 47.4125 -122.1950 151° Southeast 215 247 6,000 1,313 Climbing Seattle Center
Sat 01:28:45 PM 47.3722 -122.1867 172° South 231 266 6,000 938 Level Seattle Center
Sat 01:29:46 PM 47.3025 -122.1731 172° South 251 289 7,500 2,164 Climbing Seattle Center
Sat 01:30:47 PM 47.2253 -122.1514 169° South 282 325 10,400 3,049 Climbing Seattle Center
Sat 01:31:48 PM 47.1386 -122.1811 193° South 326 375 13,700 3,148 Climbing Seattle Center
Sat 01:32:49 PM 47.0700 -122.2781 224° Southwest 341 392 16,800 2,902 Climbing Seattle Center
Sat 01:33:50 PM 46.9878 -122.3264 202° Southwest 352 405 19,600 2,656 Climbing Seattle Center
Sat 01:34:51 PM 46.8889 -122.3064 172° South 361 415 22,200 2,459 Climbing Seattle Center
Sat 01:35:52 PM 46.7869 -122.2858 172° South 373 429 24,600 2,410 Climbing Seattle Center
Sat 01:36:53 PM 46.6831 -122.2611 171° South 381 438 27,100 2,479 Climbing Seattle Center
Sat 01:37:53 PM 46.5767 -122.2350 170° South 389 448 29,600 2,430 Climbing Seattle Center
Sat 01:38:54 PM 46.4731 -122.2039 168° South 387 445 32,000 2,213 Climbing Seattle Center
Sat 01:39:55 PM 46.3703 -122.1731 168° South 382 440 34,100 2,066 Climbing Seattle Center
Sat 01:40:56 PM 46.2461 -122.1361 168° South 382 440 36,200 1,721 Climbing Seattle Center
Sat 01:41:57 PM 46.1506 -122.1094 169° South 384 442 37,600 1,426 Climbing Seattle Center
Sat 01:42:58 PM 46.0433 -122.0783 169° South 390 449 39,100 1,279 Climbing Seattle Center
Sat 01:43:59 PM 45.9375 -122.0475 169° South 389 448 40,200 934 Climbing Seattle Center
Sat 01:45:00 PM 45.8303 -122.0158 168° South 393 452 41,000 393 Climbing Seattle Center
Sat 01:46:01 PM 45.7161 -121.9833 169° South 413 475 41,000  Level Seattle Center
Sat 01:47:02 PM 45.5986 -121.9514 169° South 424 488 41,000  Level Seattle Center
Sat 01:48:03 PM 45.4500 -121.9061 168° South 445 512 41,000  Level Seattle Center
Sat 01:49:03 PM 45.3292 -121.8714 169° South 446 513 41,000  Level Seattle Center
Sat 01:50:04 PM 45.2058 -121.8397 170° South 449 517 41,000  Level Seattle Center
Sat 01:51:05 PM 45.0847 -121.8044 168° South 448 516 41,000  Level Seattle Center
Sat 01:52:06 PM 44.9625 -121.7697 169° South 450 518 41,000  Level Seattle Center
Sat 01:53:07 PM 44.8406 -121.7369 169° South 449 517 41,000  Level Seattle Center
Sat 01:54:08 PM 44.7181 -121.7033 169° South 450 518 41,000  Level Seattle Center
Sat 01:55:09 PM 44.5950 -121.6689 169° South 453 521 41,000  Level Seattle Center
Sat 01:56:10 PM 44.4711 -121.6353 169° South 455 524 41,000  Level Seattle Center
Sat 01:57:11 PM 44.3464 -121.6022 169° South 456 525 41,000  Level Seattle Center
Sat 01:58:12 PM 44.2222 -121.5681 169° South 459 528 41,000  Level Seattle Center
Sat 01:59:13 PM 44.0722 -121.5275 169° South 459 528 41,000  Level Seattle Center
Sat 02:00:14 PM 43.9467 -121.4936 169° South 461 531 41,000  Level Seattle Center
Sat 02:01:15 PM 43.8192 -121.4500 166° South 462 532 41,000  Level Seattle Center
Sat 02:02:16 PM 43.6917 -121.4069 166° South 470 541 41,000  Level Seattle Center
Sat 02:03:17 PM 43.5678 -121.3622 165° South 464 534 41,000  Level Seattle Center
Sat 02:04:18 PM 43.4422 -121.3150 165° South 467 537 41,000  Level Seattle Center
Sat 02:05:19 PM 43.3161 -121.2733 166° South 467 537 41,000  Level Seattle Center
Sat 02:06:20 PM 43.1900 -121.2319 167° South 467 537 41,000  Level Seattle Center
Sat 02:07:21 PM 43.0639 -121.1869 165° South 468 539 41,000  Level Seattle Center
Sat 02:08:22 PM 42.9369 -121.1450 166° South 469 540 41,000  Level Seattle Center
Sat 02:09:22 PM 42.8094 -121.1008 166° South 470 541 41,000  Level Seattle Center
Sat 02:10:23 PM 42.6844 -121.0569 166° South 467 537 41,000  Level Seattle Center
Sat 02:11:24 PM 42.5569 -121.0150 166° South 470 541 41,000  Level Seattle Center
Sat 02:12:25 PM 42.4283 -120.9714 166° South 472 543 41,000  Level Seattle Center
Sat 02:13:26 PM 42.3000 -120.9264 165° South 475 547 41,000  Level Seattle Center
Sat 02:14:27 PM 42.1714 -120.8831 166° South 474 545 41,000  Level Seattle Center
Sat 02:15:28 PM 42.0422 -120.8397 166° South 474 545 41,000  Level Seattle Center
Sat 02:16:29 PM 41.9111 -120.7958 166° South 478 550 41,000  Level Seattle Center
Sat 02:17:30 PM 41.7794 -120.7536 167° South 482 555 41,000  Level Seattle Center
Sat 02:18:31 PM 41.6494 -120.7100 166° South 481 554 41,000  Level Seattle Center
Sat 02:19:32 PM 41.5197 -120.6664 166° South 480 552 41,000  Level Seattle Center
Sat 02:20:33 PM 41.3647 -120.6139 166° South 479 551 41,000  Level Seattle Center
Sat 02:21:34 PM 41.2339 -120.5714 166° South 480 552 41,000  Level Seattle Center
Sat 02:22:34 PM 41.1028 -120.5286 166° South 483 556 41,000  Level Seattle Center
Sat 02:23:35 PM 40.9717 -120.4869 167° South 482 555 41,000  Level Seattle Center
Sat 02:24:36 PM 40.8394 -120.4456 167° South 486 559 41,000  Level Seattle Center
Sat 02:25:01 PM 40.7878 -120.4278 165° South 485 558 41,000  Level Oakland Center
Sat 02:26:03 PM 40.6561 -120.3850 166° South 486 559 41,000  Level Oakland Center
Sat 02:27:04 PM 40.5181 -120.3422 167° South 485 558 41,000  Level Oakland Center
Sat 02:28:05 PM 40.3872 -120.3014 167° South 484 557 41,000  Level Oakland Center
Sat 02:28:40 PM 40.3081 -120.2769 167° South 484 557 41,000  Level Seattle Center
Sat 02:29:07 PM 40.2561 -120.2603 166° South 485 558 41,000  Level Oakland Center
Sat 02:30:08 PM 40.1264 -120.2186 166° South 482 555 41,000  Level Oakland Center
Sat 02:31:10 PM 39.9742 -120.1714 167° South 487 560 41,000  Level Oakland Center
Sat 02:32:11 PM 39.8425 -120.1308 167° South 486 559 41,000  Level Oakland Center
Sat 02:33:12 PM 39.7036 -120.0869 166° South 491 565 41,000  Level Oakland Center
Sat 02:34:14 PM 39.5708 -120.0461 167° South 492 566 41,000  Level Oakland Center
Sat 02:35:15 PM 39.4386 -120.0050 166° South 490 564 41,000  Level Oakland Center
Sat 02:36:17 PM 39.3050 -119.9647 167° South 493 567 41,000  Level Oakland Center
Sat 02:37:18 PM 39.1706 -119.9225 166° South 496 571 41,000  Level Oakland Center
Sat 02:38:20 PM 39.0375 -119.8811 166° South 495 570 41,000  Level Oakland Center
Sat 02:39:21 PM 38.9047 -119.8417 167° South 492 566 41,000  Level Oakland Center
Sat 02:40:22 PM 38.7706 -119.8011 167° South 492 566 41,000  Level Oakland Center
Sat 02:41:24 PM 38.6133 -119.7539 167° South 492 566 41,000  Level Oakland Center
Sat 02:42:25 PM 38.4811 -119.7142 167° South 491 565 41,000  Level Oakland Center
Sat 02:43:27 PM 38.3431 -119.6733 167° South 493 567 41,000  Level Oakland Center
Sat 02:44:28 PM 38.2081 -119.6331 167° South 495 570 41,000  Level Oakland Center
Sat 02:45:29 PM 38.0764 -119.5922 166° South 489 563 41,000  Level Oakland Center
Sat 02:46:31 PM 37.9431 -119.5519 167° South 487 560 41,000  Level Oakland Center
Sat 02:47:32 PM 37.8050 -119.5136 168° South 498 573 41,000  Level Oakland Center
Sat 02:48:33 PM 37.6708 -119.4747 167° South 496 571 41,000  Level Oakland Center
Sat 02:49:35 PM 37.5328 -119.4347 167° South 496 571 41,000  Level Oakland Center
Sat 02:50:36 PM 37.3994 -119.3972 167° South 490 564 41,000  Level Oakland Center
Sat 02:51:37 PM 37.2650 -119.3583 167° South 492 566 41,000  Level Oakland Center
Sat 02:52:39 PM 37.1319 -119.3194 167° South 489 563 41,000  Level Oakland Center
Sat 02:53:40 PM 36.9731 -119.2725 167° South 487 560 41,000  Level Oakland Center
Sat 02:54:41 PM 36.8392 -119.2328 167° South 494 568 41,000  Level Oakland Center
Sat 02:55:42 PM 36.7061 -119.1950 167° South 490 564 41,000  Level Oakland Center
Sat 02:56:44 PM 36.5739 -119.1575 167° South 487 560 41,000  Level Oakland Center
Sat 02:57:45 PM 36.4394 -119.1175 167° South 494 568 41,000  Level Oakland Center
Sat 02:58:46 PM 36.3075 -119.0814 168° South 487 560 41,000  Level Oakland Center
Sat 02:59:48 PM 36.1767 -119.0467 168° South 481 554 41,000  Level Oakland Center
Sat 03:00:49 PM 36.0442 -119.0092 167° South 483 556 41,000  Level Oakland Center
Sat 03:01:50 PM 35.9111 -118.9717 167° South 487 560 41,000  Level Oakland Center
Sat 03:02:52 PM 35.7783 -118.9344 167° South 489 563 41,000  Level Oakland Center
Sat 03:03:53 PM 35.6442 -118.8972 167° South 492 566 41,000  Level Oakland Center
Sat 03:04:54 PM 35.4836 -118.8531 167° South 491 565 41,000  Level Oakland Center
Sat 03:05:59 PM 35.3478 -118.8158 167° South 493 567 41,000  Level Los Center
Sat 03:07:01 PM 35.2133 -118.7783 167° South 493 567 41,000  Level Los Center
Sat 03:08:03 PM 35.0792 -118.7417 167° South 493 567 41,000  Level Los Center
Sat 03:09:05 PM 34.9436 -118.7050 167° South 496 571 41,000  Level Los Center
Sat 03:10:07 PM 34.7931 -118.6642 167° South 498 573 41,000  Level Los Center
Sat 03:11:09 PM 34.6578 -118.6286 168° South 499 574 41,000  Level Los Center
Sat 03:12:11 PM 34.5228 -118.5917 167° South 499 574 41,000  Level Los Center
Sat 03:13:13 PM 34.4181 -118.5486 161° South 499 574 41,000 -532 Level Los Center
Sat 03:14:15 PM 34.2542 -118.4253 148° Southeast 495 570 39,900 -1,403 Descending Los Center
Sat 03:15:17 PM 34.1386 -118.3378 148° Southeast 490 564 38,100 -1,694 Descending Los Center
Sat 03:16:19 PM 34.0497 -118.2689 147° Southeast 478 550 36,400 -2,129 Descending Los Center
Sat 03:17:21 PM 33.9158 -118.1658 147° Southeast 472 543 33,700 -2,468 Descending Los Center
Sat 03:18:23 PM 33.8011 -118.0783 148° Southeast 481 554 31,300 -2,419 Descending Los Center
Sat 03:19:25 PM 33.6858 -117.9911 148° Southeast 483 556 28,700 -2,565 Descending Los Center
Sat 03:20:27 PM 33.5761 -117.9097 148° Southeast 460 529 26,000 -2,613 Descending Los Center
Sat 03:21:29 PM 33.4736 -117.8325 148° Southeast 436 502 23,300 -3,143 Descending Los Center
Sat 03:21:51 PM 33.4333 -117.7833 134° Southeast 405 466 21,600 -3,512 Descending Southern TRACON
Sat 03:22:51 PM 33.3500 -117.7000 140° Southeast 379 436 18,500 -2,765 Descending Southern TRACON
Sat 03:23:33 PM 33.3086 -117.6356 128° Southeast 378 435 16,900 -2,600 Descending Los Center
Sat 03:23:51 PM 33.2833 -117.6000 130° Southeast 367 422 15,900 -1,462 Descending Southern TRACON
Sat 03:24:51 PM 33.2000 -117.5333 146° Southeast 354 407 15,000 -474 Descending Southern TRACON
Sat 03:25:45 PM 33.1333 -117.4667 140° Southeast 360 414 15,000 -278 Level Southern TRACON
Sat 03:26:39 PM 33.0764 -117.4189 145° Southeast 353 406 14,500 -1,603 Descending Los Center
Sat 03:27:41 PM 32.9967 -117.3564 147° Southeast 347 399 11,900 -2,758 Descending Los Center
Sat 03:28:43 PM 32.9119 -117.2897 147° Southeast 312 359 8,800 -2,758 Descending Los Center
Sat 03:29:45 PM 32.8494 -117.2389 146° Southeast 278 320 6,200 -1,839 Descending Los Center
Sat 03:30:47 PM 32.8078 -117.1833 132° Southeast 247 284 5,000 -629 Descending Los Center
Sat 03:31:49 PM 32.7892 -117.1167 108° East 214 246 4,900 -290 Descending Los Center
Sat 03:32:51 PM 32.7719 -117.0517 107° East 209 241 4,400 -1,333 Descending Los Center
Sat 03:33:46 PM 32.7167 -117.0667 193° South 212 244 2,300 -1,574 Descending Southern TRACON
Sat 03:34:53 PM 32.7167 -117.1333 270° West 130 150 1,200 -857 Descending Southern TRACON
Sat 03:35:52 PM 32.7333 -117.1667 301° West 111 128 500 -524 Descending Southern TRACON
Sat 03:36:59 PM 32.7361 -117.1964 276° West 117 135 100 -358 Descending Los Center
Sat 03:38:00 PM 32.7336 -117.1897 235° Southwest  Level Estimated
Sat 03:45:00 PM 32.7333 -117.1833 235° Southwest  Level FlightAware

Login

Don't have an account? Register now (free) for customized features, flight alerts, and more!